createdAt,value
2022-10-25T00:01:44.713Z,98.10
2022-10-25T00:04:12.000Z,98.68
2022-10-25T00:06:39.184Z,98.96
2022-10-25T00:09:06.557Z,98.77
2022-10-25T00:11:33.824Z,99.07
2022-10-25T00:14:03.406Z,99.08
2022-10-25T00:16:33.009Z,99.11
2022-10-25T00:19:00.292Z,98.96
2022-10-25T00:21:27.502Z,98.70
2022-10-25T00:23:54.775Z,99.18
2022-10-25T00:26:22.225Z,99.00
2022-10-25T00:28:49.695Z,99.31
2022-10-25T00:31:17.681Z,99.03
2022-10-25T00:33:45.298Z,99.38
2022-10-25T00:36:15.295Z,99.56
2022-10-25T00:38:42.846Z,99.15
2022-10-25T00:41:10.596Z,99.07
2022-10-25T00:43:47.805Z,99.38
2022-10-25T00:46:21.181Z,99.52
2022-10-25T00:48:53.884Z,99.34
2022-10-25T00:51:24.092Z,99.03
2022-10-25T00:53:51.309Z,99.02
2022-10-25T00:56:23.480Z,98.69
2022-10-25T00:58:53.537Z,98.31
2022-10-25T01:01:20.766Z,99.09
2022-10-25T01:03:49.340Z,98.71
2022-10-25T01:06:22.067Z,98.71
2022-10-25T01:08:50.854Z,98.29
2022-10-25T01:11:18.139Z,98.22
2022-10-25T01:13:45.376Z,98.14
2022-10-25T01:16:36.000Z,98.26
2022-10-25T01:19:30.576Z,98.27
2022-10-25T01:22:06.775Z,97.71
2022-10-25T01:25:17.664Z,98.17
2022-10-25T01:28:04.592Z,97.70
2022-10-25T01:31:12.298Z,97.15
2022-10-25T01:33:58.461Z,97.57
2022-10-25T01:36:42.632Z,97.40
2022-10-25T01:39:18.785Z,98.11
2022-10-25T01:42:07.183Z,97.84
2022-10-25T01:44:47.157Z,97.61
2022-10-25T01:47:35.453Z,97.06
2022-10-25T01:50:05.362Z,97.14
2022-10-25T01:52:32.589Z,96.43
2022-10-25T01:54:59.730Z,96.51
2022-10-25T01:57:50.789Z,95.89
2022-10-25T02:00:22.500Z,95.45
2022-10-25T02:03:18.550Z,95.54
2022-10-25T02:06:21.207Z,95.67
2022-10-25T02:09:03.508Z,96.27
2022-10-25T02:11:32.039Z,95.77
2022-10-25T02:14:24.085Z,95.72
2022-10-25T02:16:57.830Z,96.39
2022-10-25T02:19:33.180Z,95.96
2022-10-25T02:22:01.747Z,96.27
2022-10-25T02:24:30.710Z,96.50
2022-10-25T02:26:59.017Z,96.43
2022-10-25T02:29:27.755Z,96.66
2022-10-25T02:31:55.124Z,96.82
2022-10-25T02:34:22.279Z,96.96
2022-10-25T02:36:50.631Z,96.04
2022-10-25T02:39:19.610Z,94.93
2022-10-25T02:41:46.770Z,94.97
2022-10-25T02:44:14.219Z,95.48
2022-10-25T02:46:41.379Z,94.84
2022-10-25T02:49:08.524Z,95.22
2022-10-25T02:51:35.724Z,94.94
2022-10-25T02:54:02.875Z,95.02
2022-10-25T02:56:30.204Z,95.67
2022-10-25T02:58:58.182Z,94.72
2022-10-25T03:01:26.203Z,93.68
2022-10-25T03:03:53.647Z,92.66
2022-10-25T03:06:20.881Z,92.46
2022-10-25T03:08:48.321Z,92.46
2022-10-25T03:11:16.840Z,92.33
2022-10-25T03:13:44.355Z,92.26
2022-10-25T03:16:11.522Z,91.89
2022-10-25T03:18:38.759Z,92.56
2022-10-25T03:21:06.424Z,91.86
2022-10-25T03:23:33.876Z,91.75
2022-10-25T03:26:01.940Z,90.89
2022-10-25T03:28:30.427Z,90.07
2022-10-25T03:30:58.722Z,89.67
2022-10-25T03:33:26.467Z,90.89
2022-10-25T03:35:54.690Z,91.27
2022-10-25T03:38:22.131Z,90.67
2022-10-25T03:40:49.283Z,90.08
2022-10-25T03:43:16.487Z,89.11
2022-10-25T03:45:43.737Z,88.93
2022-10-25T03:48:10.965Z,88.82
2022-10-25T03:50:38.168Z,88.50
2022-10-25T03:53:06.162Z,88.63
2022-10-25T03:55:34.029Z,88.83
2022-10-25T03:58:01.183Z,89.12
2022-10-25T04:00:28.710Z,89.18
2022-10-25T04:03:01.674Z,88.64
2022-10-25T04:05:30.457Z,89.62
2022-10-25T04:07:57.727Z,89.31
2022-10-25T04:10:25.549Z,90.98
2022-10-25T04:12:54.042Z,90.66
2022-10-25T04:15:22.078Z,90.03
2022-10-25T04:17:50.476Z,90.52
2022-10-25T04:20:18.112Z,90.11
2022-10-25T04:22:45.492Z,90.93
2022-10-25T04:25:12.651Z,90.47
2022-10-25T04:27:39.819Z,90.71
2022-10-25T04:30:07.367Z,90.51
2022-10-25T04:32:34.534Z,90.93
2022-10-25T04:35:01.689Z,90.95
2022-10-25T04:37:28.832Z,91.49
2022-10-25T04:39:55.988Z,91.44
2022-10-25T04:42:23.163Z,91.65
2022-10-25T04:44:50.294Z,91.86
2022-10-25T04:47:17.464Z,92.43
2022-10-25T04:49:44.592Z,93.42
2022-10-25T04:52:11.752Z,94.22
2022-10-25T04:54:38.891Z,94.06
2022-10-25T04:57:07.165Z,94.82
2022-10-25T04:59:34.345Z,95.10
2022-10-25T05:02:01.531Z,95.32
2022-10-25T05:04:29.235Z,95.19
2022-10-25T05:06:56.389Z,95.80
2022-10-25T05:09:23.621Z,96.50
2022-10-25T05:11:50.781Z,96.85
2022-10-25T05:14:17.927Z,97.35
2022-10-25T05:16:45.136Z,97.54
2022-10-25T05:19:12.274Z,97.86
2022-10-25T05:21:39.459Z,98.39
2022-10-25T05:24:07.029Z,98.45
2022-10-25T05:26:34.172Z,98.63
2022-10-25T05:29:01.346Z,98.75
2022-10-25T05:31:30.397Z,99.80
2022-10-25T05:33:59.694Z,99.73
2022-10-25T05:36:29.331Z,99.41
2022-10-25T05:38:56.595Z,99.96
2022-10-25T05:41:23.852Z,99.46
2022-10-25T05:43:51.056Z,99.36
2022-10-25T05:46:21.130Z,99.42
2022-10-25T05:48:49.422Z,98.88
2022-10-25T05:51:32.968Z,99.03
2022-10-25T05:54:02.422Z,99.50
2022-10-25T05:56:30.987Z,99.80
2022-10-25T05:58:58.518Z,99.33
2022-10-25T06:01:26.927Z,99.46
2022-10-25T06:03:55.423Z,99.51
2022-10-25T06:06:23.035Z,99.52
2022-10-25T06:08:50.296Z,99.36
2022-10-25T06:11:19.372Z,99.43
2022-10-25T06:13:46.820Z,98.90
2022-10-25T06:16:17.097Z,98.32
2022-10-25T06:18:44.552Z,97.71
2022-10-25T06:21:12.389Z,97.83
2022-10-25T06:23:40.071Z,97.88
2022-10-25T06:26:09.317Z,97.19
2022-10-25T06:28:36.486Z,97.40
2022-10-25T06:31:12.462Z,97.33
2022-10-25T06:33:40.096Z,97.34
2022-10-25T06:36:12.923Z,96.95
2022-10-25T06:38:40.561Z,97.15
2022-10-25T06:41:13.175Z,96.64
2022-10-25T06:43:40.374Z,96.45
2022-10-25T06:46:09.111Z,96.16
2022-10-25T06:48:36.448Z,96.03
2022-10-25T06:51:05.309Z,96.10
2022-10-25T06:53:32.705Z,96.23
2022-10-25T06:56:04.592Z,96.12
2022-10-25T06:58:33.786Z,95.61
2022-10-25T07:01:06.487Z,95.14
2022-10-25T07:03:37.216Z,95.53
2022-10-25T07:06:09.960Z,94.66
2022-10-25T07:08:42.781Z,95.74
2022-10-25T07:11:17.584Z,95.57
2022-10-25T07:13:45.263Z,96.13
2022-10-25T07:16:14.798Z,94.46
2022-10-25T07:18:42.396Z,93.84
2022-10-25T07:21:12.268Z,93.90
2022-10-25T07:23:43.174Z,94.41
2022-10-25T07:26:15.509Z,94.68
2022-10-25T07:28:44.474Z,95.14
2022-10-25T07:31:14.163Z,96.65
2022-10-25T07:33:41.524Z,96.45
2022-10-25T07:36:12.290Z,95.29
2022-10-25T07:38:39.612Z,95.30
2022-10-25T07:41:07.155Z,93.62
2022-10-25T07:43:34.362Z,93.01
2022-10-25T07:46:02.244Z,93.31
2022-10-25T07:48:29.428Z,93.82
2022-10-25T07:50:56.583Z,92.91
2022-10-25T07:53:24.017Z,93.53
2022-10-25T07:55:52.387Z,94.31
2022-10-25T07:58:20.082Z,95.63
2022-10-25T08:00:47.715Z,97.44
2022-10-25T08:03:16.272Z,98.40
2022-10-25T08:05:47.728Z,99.42
2022-10-25T08:08:15.600Z,100.00
2022-10-25T08:10:43.831Z,100.00
2022-10-25T08:13:11.459Z,100.00
2022-10-25T08:15:40.849Z,100.00
2022-10-25T08:18:09.447Z,100.00
2022-10-25T08:21:00.153Z,100.00
2022-10-25T08:23:25.263Z,100.00
2022-10-25T08:25:52.500Z,100.00
2022-10-25T08:28:19.948Z,100.00
2022-10-25T08:30:47.141Z,100.00
2022-10-25T08:33:14.339Z,100.00
2022-10-25T08:35:41.528Z,100.00
2022-10-25T08:38:08.678Z,100.00
2022-10-25T08:40:54.402Z,100.00
2022-10-25T08:43:51.624Z,100.00
2022-10-25T08:46:22.290Z,100.00
2022-10-25T08:48:53.492Z,100.00
2022-10-25T08:51:42.077Z,100.00
2022-10-25T08:54:31.208Z,100.00
2022-10-25T08:57:17.848Z,100.00
2022-10-25T08:59:50.089Z,100.00
2022-10-25T09:02:38.955Z,100.00
2022-10-25T09:05:22.739Z,100.00
2022-10-25T09:08:28.579Z,100.00
2022-10-25T09:10:58.821Z,100.00
2022-10-25T09:13:42.063Z,100.00
2022-10-25T09:16:21.943Z,99.69
2022-10-25T09:18:59.855Z,99.86
2022-10-25T09:21:35.824Z,100.00
2022-10-25T09:24:12.788Z,100.00
2022-10-25T09:26:42.772Z,99.16
2022-10-25T09:29:35.772Z,99.25
2022-10-25T09:32:08.005Z,100.00
2022-10-25T09:34:35.255Z,100.00
2022-10-25T09:37:17.891Z,100.00
2022-10-25T09:39:49.437Z,99.14
2022-10-25T09:42:42.968Z,98.93
2022-10-25T09:45:31.145Z,99.39
2022-10-25T09:48:18.544Z,97.68
2022-10-25T09:51:02.582Z,96.81
2022-10-25T09:53:31.711Z,96.85
2022-10-25T09:56:00.805Z,96.38
2022-10-25T09:58:32.848Z,95.24
2022-10-25T10:01:08.433Z,94.22
2022-10-25T10:03:36.766Z,95.37
2022-10-25T10:06:16.278Z,96.45
2022-10-25T10:08:53.348Z,96.52
2022-10-25T10:11:22.045Z,96.35
2022-10-25T10:14:22.925Z,92.67
2022-10-25T10:16:56.438Z,93.61
2022-10-25T10:19:25.839Z,92.51
2022-10-25T10:21:56.851Z,91.09
2022-10-25T10:24:30.385Z,92.08
2022-10-25T10:27:07.179Z,92.80
2022-10-25T10:29:50.313Z,91.17
2022-10-25T10:32:29.895Z,90.12
2022-10-25T10:35:00.551Z,90.48
2022-10-25T10:37:31.352Z,91.01
2022-10-25T10:40:03.936Z,89.50
2022-10-25T10:42:36.855Z,91.48
2022-10-25T10:45:10.392Z,90.25
2022-10-25T10:47:49.583Z,90.84
2022-10-25T10:50:22.764Z,89.87
2022-10-25T10:53:05.955Z,90.07
2022-10-25T10:55:34.026Z,87.40
2022-10-25T10:58:06.380Z,89.62
2022-10-25T11:00:34.308Z,90.54
2022-10-25T11:03:01.815Z,89.10
2022-10-25T11:05:35.049Z,89.45
2022-10-25T11:08:09.560Z,87.17
2022-10-25T11:10:38.231Z,87.36
2022-10-25T11:13:07.808Z,87.05
2022-10-25T11:15:45.487Z,85.74
2022-10-25T11:18:13.849Z,86.53
2022-10-25T11:20:54.596Z,85.71
2022-10-25T11:23:31.406Z,87.25
2022-10-25T11:26:02.591Z,86.39
2022-10-25T11:28:54.368Z,86.47
2022-10-25T11:31:46.138Z,86.97
2022-10-25T11:34:44.618Z,85.17
2022-10-25T11:37:21.516Z,80.65
2022-10-25T11:39:55.917Z,84.43
2022-10-25T11:43:00.731Z,82.48
2022-10-25T11:45:40.954Z,82.97
2022-10-25T11:48:54.885Z,81.98
2022-10-25T11:51:39.979Z,83.57
2022-10-25T11:54:12.830Z,81.64
2022-10-25T11:57:01.793Z,83.60
2022-10-25T12:00:16.605Z,79.84
2022-10-25T12:03:00.640Z,78.52
2022-10-25T12:05:52.039Z,82.61
2022-10-25T12:08:41.917Z,81.78
2022-10-25T12:11:20.358Z,80.34
2022-10-25T12:13:56.210Z,79.22
2022-10-25T12:16:24.442Z,78.56
2022-10-25T12:18:59.931Z,78.96
2022-10-25T12:21:30.984Z,80.24
2022-10-25T12:23:58.340Z,81.23
2022-10-25T12:26:26.879Z,81.44
2022-10-25T12:28:54.561Z,79.98
2022-10-25T12:31:24.513Z,77.73
2022-10-25T12:33:59.896Z,79.95
2022-10-25T12:36:35.647Z,80.46
2022-10-25T12:39:10.310Z,77.42
2022-10-25T12:41:38.777Z,80.03
2022-10-25T12:44:17.894Z,81.12
2022-10-25T12:46:51.553Z,80.99
2022-10-25T12:49:33.351Z,81.54
2022-10-25T12:52:22.103Z,81.69
2022-10-25T12:54:53.083Z,81.90
2022-10-25T12:57:57.745Z,79.38
2022-10-25T13:00:25.089Z,79.06
2022-10-25T13:03:27.222Z,78.63
2022-10-25T13:06:16.356Z,79.78
2022-10-25T13:08:43.483Z,77.66
2022-10-25T13:11:10.981Z,79.81
2022-10-25T13:13:49.829Z,77.92
2022-10-25T13:16:26.043Z,77.95
2022-10-25T13:19:49.402Z,77.61
2022-10-25T13:22:35.858Z,80.65
2022-10-25T13:25:14.002Z,80.79
2022-10-25T13:28:18.007Z,82.62
2022-10-25T13:30:45.516Z,83.27
2022-10-25T13:33:24.068Z,84.68
2022-10-25T13:35:51.282Z,83.44
2022-10-25T13:38:26.448Z,83.11
2022-10-25T13:41:09.792Z,84.75
2022-10-25T13:43:52.299Z,85.53
2022-10-25T13:46:19.673Z,86.37
2022-10-25T13:48:46.884Z,87.54
2022-10-25T13:51:16.850Z,87.28
2022-10-25T13:53:50.054Z,87.49
2022-10-25T13:56:23.293Z,87.49
2022-10-25T13:58:53.868Z,87.01
2022-10-25T14:01:21.381Z,86.77
2022-10-25T14:04:22.278Z,88.02
2022-10-25T14:06:49.433Z,88.80
2022-10-25T14:09:33.433Z,87.99
2022-10-25T14:12:06.529Z,87.44
2022-10-25T14:14:36.932Z,87.65
2022-10-25T14:17:27.973Z,88.99
2022-10-25T14:20:04.169Z,88.23
2022-10-25T14:22:41.987Z,89.72
2022-10-25T14:25:21.652Z,90.03
2022-10-25T14:27:48.827Z,90.40
2022-10-25T14:30:29.629Z,89.44
2022-10-25T14:32:59.386Z,89.66
2022-10-25T14:35:47.861Z,89.43
2022-10-25T14:38:26.649Z,91.10
2022-10-25T14:40:56.310Z,91.08
2022-10-25T14:43:31.545Z,92.73
2022-10-25T14:46:14.398Z,93.55
2022-10-25T14:48:49.176Z,92.78
2022-10-25T14:51:37.356Z,92.17
2022-10-25T14:54:06.087Z,92.68
2022-10-25T14:56:58.787Z,93.57
2022-10-25T14:59:44.947Z,93.98
2022-10-25T15:02:23.315Z,93.16
2022-10-25T15:04:52.548Z,93.86
2022-10-25T15:07:22.930Z,93.29
2022-10-25T15:09:51.388Z,92.31
2022-10-25T15:12:29.775Z,91.02
2022-10-25T15:14:59.127Z,89.63
2022-10-25T15:17:30.711Z,88.25
2022-10-25T15:20:28.502Z,88.83
2022-10-25T15:23:13.255Z,89.52
2022-10-25T15:25:40.425Z,91.17
2022-10-25T15:28:12.778Z,91.88
2022-10-25T15:30:48.338Z,91.93
2022-10-25T15:33:28.033Z,92.03
2022-10-25T15:36:01.011Z,92.10
2022-10-25T15:38:47.987Z,93.00
2022-10-25T15:41:18.121Z,94.18
2022-10-25T15:43:47.183Z,94.69
2022-10-25T15:46:38.202Z,94.49
2022-10-25T15:49:08.154Z,94.18
2022-10-25T15:51:38.219Z,93.48
2022-10-25T15:54:05.481Z,93.62
2022-10-25T15:56:32.711Z,93.74
2022-10-25T15:59:02.271Z,94.47
2022-10-25T16:01:29.631Z,94.98
2022-10-25T16:03:59.337Z,95.71
2022-10-25T16:06:26.566Z,96.33
2022-10-25T16:08:53.731Z,97.24
2022-10-25T16:11:22.060Z,97.33
2022-10-25T16:13:52.164Z,97.87
2022-10-25T16:16:43.325Z,97.89
2022-10-25T16:19:13.853Z,98.06
2022-10-25T16:21:41.344Z,98.32
2022-10-25T16:24:08.589Z,98.66
2022-10-25T16:26:43.061Z,98.51
2022-10-25T16:29:20.828Z,98.82
2022-10-25T16:31:48.294Z,98.61
2022-10-25T16:34:17.261Z,99.59
2022-10-25T16:36:48.528Z,98.96
2022-10-25T16:39:15.939Z,98.66
2022-10-25T16:41:44.980Z,98.69
2022-10-25T16:44:13.553Z,98.62
2022-10-25T16:46:41.127Z,97.71
2022-10-25T16:49:09.455Z,97.75
2022-10-25T16:51:37.443Z,97.91
2022-10-25T16:54:04.747Z,97.62
2022-10-25T16:56:31.989Z,97.88
2022-10-25T16:58:59.507Z,97.78
2022-10-25T17:01:34.757Z,97.34
2022-10-25T17:04:04.233Z,96.98
2022-10-25T17:06:46.716Z,96.37
2022-10-25T17:09:16.443Z,96.40
2022-10-25T17:11:44.208Z,95.76
2022-10-25T17:14:12.601Z,95.83
2022-10-25T17:16:41.330Z,96.02
2022-10-25T17:19:10.752Z,96.38
2022-10-25T17:21:37.989Z,96.34
2022-10-25T17:24:06.553Z,96.40
2022-10-25T17:26:33.707Z,96.56
2022-10-25T17:29:01.108Z,96.32
2022-10-25T17:31:28.592Z,95.90
2022-10-25T17:33:56.810Z,95.64
2022-10-25T17:36:24.106Z,95.66
2022-10-25T17:38:51.267Z,95.77
2022-10-25T17:41:18.502Z,95.80
2022-10-25T17:43:45.669Z,95.83
2022-10-25T17:46:21.164Z,96.15
2022-10-25T17:48:48.536Z,95.11
2022-10-25T17:51:16.563Z,95.13
2022-10-25T17:53:43.691Z,95.16
2022-10-25T17:56:18.620Z,95.28
2022-10-25T17:58:47.322Z,94.63
2022-10-25T18:01:17.798Z,94.44
2022-10-25T18:03:45.598Z,94.22
2022-10-25T18:06:15.518Z,94.48
2022-10-25T18:08:43.067Z,94.99
2022-10-25T18:11:14.819Z,95.50
2022-10-25T18:13:42.425Z,95.59
2022-10-25T18:16:10.777Z,95.78
2022-10-25T18:18:38.400Z,95.48
2022-10-25T18:21:06.982Z,95.21
2022-10-25T18:23:34.515Z,94.89
2022-10-25T18:26:02.111Z,95.04
2022-10-25T18:28:29.355Z,95.49
2022-10-25T18:31:00.051Z,94.86
2022-10-25T18:33:29.062Z,94.40
2022-10-25T18:36:04.750Z,94.47
2022-10-25T18:38:32.093Z,94.53
2022-10-25T18:40:59.272Z,94.67
2022-10-25T18:43:26.928Z,94.67
2022-10-25T18:45:57.962Z,94.38
2022-10-25T18:48:25.672Z,94.89
2022-10-25T18:50:52.943Z,95.14
2022-10-25T18:53:20.524Z,95.32
2022-10-25T18:55:48.621Z,95.20
2022-10-25T18:58:15.911Z,95.39
2022-10-25T19:00:46.573Z,95.02
2022-10-25T19:03:16.047Z,95.15
2022-10-25T19:05:43.654Z,95.25
2022-10-25T19:08:11.823Z,95.15
2022-10-25T19:10:42.729Z,95.69
2022-10-25T19:13:18.656Z,96.18
2022-10-25T19:15:46.563Z,95.90
2022-10-25T19:18:14.089Z,96.76
2022-10-25T19:20:45.491Z,96.91
2022-10-25T19:23:14.913Z,97.46
2022-10-25T19:25:42.454Z,97.72
2022-10-25T19:28:10.052Z,97.36
2022-10-25T19:30:41.268Z,97.61
2022-10-25T19:33:08.436Z,98.53
2022-10-25T19:35:35.602Z,98.71
2022-10-25T19:38:02.961Z,98.38
2022-10-25T19:40:30.151Z,98.92
2022-10-25T19:42:57.315Z,98.74
2022-10-25T19:45:24.520Z,98.84
2022-10-25T19:47:55.951Z,98.90
2022-10-25T19:50:23.932Z,99.07
2022-10-25T19:52:51.680Z,99.61
2022-10-25T19:55:18.873Z,99.05
2022-10-25T19:57:46.278Z,99.37
2022-10-25T20:00:14.090Z,98.54
2022-10-25T20:02:41.260Z,99.03
2022-10-25T20:05:08.805Z,99.25
2022-10-25T20:07:36.159Z,99.79
2022-10-25T20:10:03.313Z,99.79
2022-10-25T20:12:31.003Z,98.97
2022-10-25T20:14:58.566Z,98.82
2022-10-25T20:17:25.805Z,99.04
2022-10-25T20:19:52.958Z,100.00
2022-10-25T20:22:20.336Z,99.67
2022-10-25T20:24:47.485Z,99.52
2022-10-25T20:27:14.702Z,99.40
2022-10-25T20:29:41.913Z,100.00
2022-10-25T20:32:09.085Z,100.00
2022-10-25T20:34:37.407Z,100.00
2022-10-25T20:37:05.104Z,100.00
2022-10-25T20:39:32.312Z,100.00
2022-10-25T20:41:59.791Z,100.00
2022-10-25T20:44:26.950Z,100.00
2022-10-25T20:46:54.189Z,100.00
2022-10-25T20:49:21.327Z,100.00
2022-10-25T20:51:48.507Z,100.00
2022-10-25T20:54:15.691Z,100.00
2022-10-25T20:56:42.915Z,100.00
2022-10-25T20:59:10.232Z,100.00
2022-10-25T21:01:37.829Z,100.00
2022-10-25T21:04:05.264Z,100.00
2022-10-25T21:06:32.421Z,100.00
2022-10-25T21:08:59.606Z,100.00
2022-10-25T21:11:29.017Z,100.00
2022-10-25T21:13:56.304Z,100.00
2022-10-25T21:16:23.470Z,100.00
2022-10-25T21:18:50.616Z,100.00
2022-10-25T21:21:19.857Z,100.00
2022-10-25T21:23:47.170Z,100.00
2022-10-25T21:26:14.377Z,100.00
2022-10-25T21:28:42.067Z,100.00
2022-10-25T21:31:11.596Z,100.00
2022-10-25T21:33:49.682Z,100.00
2022-10-25T21:36:19.374Z,100.00
2022-10-25T21:38:46.565Z,100.00
2022-10-25T21:41:20.509Z,100.00
2022-10-25T21:43:49.294Z,100.00
2022-10-25T21:46:17.730Z,100.00
2022-10-25T21:48:47.193Z,100.00
2022-10-25T21:51:14.844Z,100.00
2022-10-25T21:53:44.599Z,100.00
2022-10-25T21:56:16.971Z,100.00
2022-10-25T21:58:45.900Z,100.00
2022-10-25T22:01:18.819Z,100.00
2022-10-25T22:03:46.628Z,100.00
2022-10-25T22:06:16.751Z,100.00
2022-10-25T22:08:44.287Z,100.00
2022-10-25T22:11:14.151Z,100.00
2022-10-25T22:13:41.452Z,100.00
2022-10-25T22:16:11.636Z,100.00
2022-10-25T22:18:39.213Z,100.00
2022-10-25T22:21:09.468Z,100.00
2022-10-25T22:23:37.345Z,100.00
2022-10-25T22:26:06.981Z,100.00
2022-10-25T22:28:36.835Z,100.00
2022-10-25T22:31:15.438Z,100.00
2022-10-25T22:33:43.786Z,100.00
2022-10-25T22:36:18.884Z,100.00
2022-10-25T22:38:46.316Z,100.00
2022-10-25T22:41:18.965Z,100.00
2022-10-25T22:43:46.936Z,100.00
2022-10-25T22:46:16.506Z,100.00
2022-10-25T22:48:44.854Z,100.00
2022-10-25T22:51:12.624Z,100.00
2022-10-25T22:53:40.631Z,100.00
2022-10-25T22:56:13.308Z,100.00
2022-10-25T22:58:41.734Z,100.00
2022-10-25T23:01:15.443Z,100.00
2022-10-25T23:03:48.880Z,100.00
2022-10-25T23:06:21.618Z,100.00
2022-10-25T23:08:48.786Z,100.00
2022-10-25T23:11:21.325Z,100.00
2022-10-25T23:13:48.693Z,100.00
2022-10-25T23:16:18.472Z,100.00
2022-10-25T23:18:46.043Z,100.00
2022-10-25T23:21:24.455Z,100.00
2022-10-25T23:23:52.713Z,100.00
2022-10-25T23:26:22.556Z,100.00
2022-10-25T23:28:50.042Z,100.00
2022-10-25T23:31:17.976Z,100.00
2022-10-25T23:33:45.473Z,100.00
2022-10-25T23:36:19.379Z,100.00
2022-10-25T23:38:47.779Z,100.00
2022-10-25T23:41:15.583Z,100.00
2022-10-25T23:43:42.776Z,100.00
2022-10-25T23:46:10.428Z,100.00
2022-10-25T23:48:37.606Z,100.00
2022-10-25T23:51:09.577Z,100.00
2022-10-25T23:53:37.095Z,100.00
2022-10-25T23:56:06.157Z,100.00
2022-10-25T23:58:33.642Z,100.00
